<?xml version="1.0" encoding="UTF-8" standalone="no" ?>
<gpx xmlns="http://www.topografix.com/GPX/1/1" xmlns:xsi="http://www.w3.org/2001/XMLSchema-instance" xsi:schemaLocation="http://www.topografix.com/GPX/1/1 http://www.topografix.com/GPX/1/1/gpx.xsd" version="1.1" creator="VisuGPX - https://www.visugpx.com">
  <metadata>
    <name>TRACE STAGE CARTO 2 ARITH</name>
    <desc><![CDATA[itinéraire rando col de la Cochette]]></desc>
  </metadata>
  <trk>
    <name><![CDATA[20181117183751-Yfb97]]></name>
    <trkseg>
      <trkpt lat="45.41254" lon="5.88657">
        <ele>1042.2568</ele>
        <time>2018-11-15 08:29:07</time>
      </trkpt>
      <trkpt lat="45.41231" lon="5.88687">
        <ele>1040.1897</ele>
        <time>744</time>
      </trkpt>
      <trkpt lat="45.41207" lon="5.88715">
        <ele>1041.0416</ele>
        <time>2018-11-15 08:29:45</time>
      </trkpt>
      <trkpt lat="45.41186" lon="5.88745">
        <ele>1039.3136</ele>
        <time>573</time>
      </trkpt>
      <trkpt lat="45.41172" lon="5.88784">
        <ele>1045.21</ele>
        <time>2018-11-15 08:30:22</time>
      </trkpt>
      <trkpt lat="45.41149" lon="5.88811">
        <ele>1055.8109</ele>
        <time>583</time>
      </trkpt>
      <trkpt lat="45.41118" lon="5.88854">
        <ele>1068.2628</ele>
        <time>2018-11-15 08:30:59</time>
      </trkpt>
      <trkpt lat="45.41092" lon="5.8888">
        <ele>1077.6252</ele>
        <time>007</time>
      </trkpt>
      <trkpt lat="45.41071" lon="5.8891">
        <ele>1080.9309</ele>
        <time>2018-11-15 08:31:48</time>
      </trkpt>
      <trkpt lat="45.41051" lon="5.88943">
        <ele>1090.5778</ele>
        <time>006</time>
      </trkpt>
      <trkpt lat="45.4106" lon="5.88984">
        <ele>1103.8881</ele>
        <time>2018-11-15 08:32:42</time>
      </trkpt>
      <trkpt lat="45.41088" lon="5.89002">
        <ele>1117.4143</ele>
        <time>008</time>
      </trkpt>
      <trkpt lat="45.41112" lon="5.89028">
        <ele>1133.058</ele>
        <time>2018-11-15 08:33:55</time>
      </trkpt>
      <trkpt lat="45.4114" lon="5.89047">
        <ele>1150.7013</ele>
        <time>007</time>
      </trkpt>
      <trkpt lat="45.41163" lon="5.89074">
        <ele>1162.5599</ele>
        <time>2018-11-15 08:34:55</time>
      </trkpt>
      <trkpt lat="45.41189" lon="5.89098">
        <ele>1173.9167</ele>
        <time>021</time>
      </trkpt>
      <trkpt lat="45.41216" lon="5.89114">
        <ele>1199.4224</ele>
        <time>2018-11-15 08:35:47</time>
      </trkpt>
      <trkpt lat="45.41246" lon="5.89116">
        <ele>1208.338</ele>
        <time>304</time>
      </trkpt>
      <trkpt lat="45.41275" lon="5.8913">
        <ele>1215.8892</ele>
        <time>2018-11-15 08:36:37</time>
      </trkpt>
      <trkpt lat="45.41303" lon="5.89149">
        <ele>1229.8534</ele>
        <time>304</time>
      </trkpt>
      <trkpt lat="45.41331" lon="5.89163">
        <ele>1244.7933</ele>
        <time>2018-11-15 08:38:04</time>
      </trkpt>
      <trkpt lat="45.4136" lon="5.89174">
        <ele>1255.7363</ele>
        <time>311</time>
      </trkpt>
      <trkpt lat="45.41391" lon="5.8918">
        <ele>1267.9894</ele>
        <time>2018-11-15 08:39:20</time>
      </trkpt>
      <trkpt lat="45.41419" lon="5.89197">
        <ele>1278.4927</ele>
        <time>307</time>
      </trkpt>
      <trkpt lat="45.41449" lon="5.89207">
        <ele>1288.4938</ele>
        <time>2018-11-15 08:40:51</time>
      </trkpt>
      <trkpt lat="45.41477" lon="5.89225">
        <ele>1304.5887</ele>
        <time>300</time>
      </trkpt>
      <trkpt lat="45.4151" lon="5.89249">
        <ele>1316.5232</ele>
        <time>2018-11-15 08:42:20</time>
      </trkpt>
      <trkpt lat="45.41539" lon="5.89235">
        <ele>1335.0784</ele>
        <time>309</time>
      </trkpt>
      <trkpt lat="45.41566" lon="5.89252">
        <ele>1347.8948</ele>
        <time>2018-11-15 08:43:32</time>
      </trkpt>
      <trkpt lat="45.41603" lon="5.89279">
        <ele>1369.0651</ele>
        <time>303</time>
      </trkpt>
      <trkpt lat="45.41632" lon="5.89293">
        <ele>1388.5745</ele>
        <time>2018-11-15 08:44:48</time>
      </trkpt>
      <trkpt lat="45.41655" lon="5.89321">
        <ele>1401.9578</ele>
        <time>311</time>
      </trkpt>
      <trkpt lat="45.41675" lon="5.89353">
        <ele>1418.9105</ele>
        <time>2018-11-15 08:50:26</time>
      </trkpt>
      <trkpt lat="45.41704" lon="5.89368">
        <ele>1434.1624</ele>
        <time>432</time>
      </trkpt>
      <trkpt lat="45.41722" lon="5.89403">
        <ele>1455.9343</ele>
        <time>2018-11-15 08:51:39</time>
      </trkpt>
      <trkpt lat="45.4173" lon="5.89444">
        <ele>1461.9746</ele>
        <time>431</time>
      </trkpt>
      <trkpt lat="45.41745" lon="5.89482">
        <ele>1466.768</ele>
        <time>2018-11-15 08:52:43</time>
      </trkpt>
      <trkpt lat="45.41751" lon="5.89524">
        <ele>1475.5372</ele>
        <time>162</time>
      </trkpt>
      <trkpt lat="45.41747" lon="5.89567">
        <ele>1482.5945</ele>
        <time>2018-11-15 08:53:58</time>
      </trkpt>
      <trkpt lat="45.41734" lon="5.89606">
        <ele>1495.8182</ele>
        <time>165</time>
      </trkpt>
      <trkpt lat="45.41715" lon="5.8964">
        <ele>1503.2362</ele>
        <time>2018-11-15 08:55:07</time>
      </trkpt>
      <trkpt lat="45.41691" lon="5.89666">
        <ele>1511.0125</ele>
        <time>182</time>
      </trkpt>
      <trkpt lat="45.41673" lon="5.89702">
        <ele>1520.1603</ele>
        <time>2018-11-15 08:56:19</time>
      </trkpt>
      <trkpt lat="45.41651" lon="5.89732">
        <ele>1522.0042</ele>
        <time>164</time>
      </trkpt>
      <trkpt lat="45.41663" lon="5.89772">
        <ele>1534.1123</ele>
        <time>2018-11-15 08:57:19</time>
      </trkpt>
      <trkpt lat="45.41648" lon="5.89809">
        <ele>1552.0619</ele>
        <time>172</time>
      </trkpt>
      <trkpt lat="45.41678" lon="5.8982">
        <ele>1561.1759</ele>
        <time>2018-11-15 08:58:25</time>
      </trkpt>
      <trkpt lat="45.41694" lon="5.89857">
        <ele>1585.906</ele>
        <time>176</time>
      </trkpt>
      <trkpt lat="45.41712" lon="5.89893">
        <ele>1606.1202</ele>
        <time>2018-11-15 08:59:16</time>
      </trkpt>
      <trkpt lat="45.41742" lon="5.89889">
        <ele>1630.2213</ele>
        <time>165</time>
      </trkpt>
      <trkpt lat="45.41768" lon="5.89864">
        <ele>1635.29</ele>
        <time>2018-11-15 09:02:07</time>
      </trkpt>
      <trkpt lat="45.41798" lon="5.89868">
        <ele>1646.0303</ele>
        <time>177</time>
      </trkpt>
      <trkpt lat="45.41829" lon="5.89866">
        <ele>1641.9186</ele>
        <time>2018-11-15 09:03:25</time>
      </trkpt>
      <trkpt lat="45.41854" lon="5.89842">
        <ele>1646.7426</ele>
        <time>162</time>
      </trkpt>
      <trkpt lat="45.41882" lon="5.89861">
        <ele>1650.0432</ele>
        <time>2018-11-15 09:05:08</time>
      </trkpt>
      <trkpt lat="45.4191" lon="5.89876">
        <ele>1650.8513</ele>
        <time>411</time>
      </trkpt>
      <trkpt lat="45.4194" lon="5.89889">
        <ele>1641.7625</ele>
        <time>2018-11-15 09:06:15</time>
      </trkpt>
      <trkpt lat="45.41957" lon="5.89924">
        <ele>1649.5114</ele>
        <time>774</time>
      </trkpt>
      <trkpt lat="45.41961" lon="5.89967">
        <ele>1673.3826</ele>
        <time>2018-11-15 09:08:05</time>
      </trkpt>
      <trkpt lat="45.41951" lon="5.90007">
        <ele>1691.9808</ele>
        <time>948</time>
      </trkpt>
      <trkpt lat="45.41957" lon="5.90049">
        <ele>1721.6215</ele>
        <time>2018-11-15 09:09:41</time>
      </trkpt>
      <trkpt lat="45.41935" lon="5.90078">
        <ele>1739.4122</ele>
        <time>945</time>
      </trkpt>
      <trkpt lat="45.41959" lon="5.90106">
        <ele>1755.749</ele>
        <time>2018-11-15 09:11:09</time>
      </trkpt>
      <trkpt lat="45.41992" lon="5.90115">
        <ele>1795.807</ele>
        <time>944</time>
      </trkpt>
      <trkpt lat="45.41975" lon="5.90154">
        <ele>1794.49</ele>
        <time>2018-11-15 09:13:21</time>
      </trkpt>
      <trkpt lat="45.41987" lon="5.90194">
        <ele>1791.1438</ele>
        <time>943</time>
      </trkpt>
      <trkpt lat="45.41958" lon="5.90139">
        <ele>1775.4956</ele>
        <time>2018-11-15 09:14:36</time>
      </trkpt>
      <trkpt lat="45.4196" lon="5.90182">
        <ele>1824.3407</ele>
        <time>943</time>
      </trkpt>
      <trkpt lat="45.4199" lon="5.9017">
        <ele>1836.9191</ele>
        <time>2018-11-15 09:16:42</time>
      </trkpt>
      <trkpt lat="45.41975" lon="5.90207">
        <ele>1847.0988</ele>
        <time>942</time>
      </trkpt>
      <trkpt lat="45.41997" lon="5.90237">
        <ele>1847.5961</ele>
        <time>2018-11-15 09:17:38</time>
      </trkpt>
      <trkpt lat="45.42027" lon="5.9024">
        <ele>1846.423</ele>
        <time>950</time>
      </trkpt>
      <trkpt lat="45.42057" lon="5.90236">
        <ele>1847.2548</ele>
        <time>2018-11-15 09:18:23</time>
      </trkpt>
      <trkpt lat="45.42087" lon="5.90228">
        <ele>1847.6174</ele>
        <time>939</time>
      </trkpt>
      <trkpt lat="45.42115" lon="5.90245">
        <ele>1847.597</ele>
        <time>2018-11-15 09:22:22</time>
      </trkpt>
      <trkpt lat="45.42163" lon="5.90268">
        <ele>1850.2123</ele>
        <time>887</time>
      </trkpt>
      <trkpt lat="45.42194" lon="5.90274">
        <ele>1852.1902</ele>
        <time>2018-11-15 09:23:14</time>
      </trkpt>
      <trkpt lat="45.42221" lon="5.90257">
        <ele>1856.5773</ele>
        <time>886</time>
      </trkpt>
      <trkpt lat="45.42252" lon="5.90254">
        <ele>1859.5835</ele>
        <time>2018-11-15 09:24:24</time>
      </trkpt>
      <trkpt lat="45.42278" lon="5.90278">
        <ele>1860.1082</ele>
        <time>884</time>
      </trkpt>
      <trkpt lat="45.42307" lon="5.90291">
        <ele>1859.139</ele>
        <time>2018-11-15 09:25:14</time>
      </trkpt>
      <trkpt lat="45.4234" lon="5.90309">
        <ele>1859.0007</ele>
        <time>885</time>
      </trkpt>
      <trkpt lat="45.42369" lon="5.90299">
        <ele>1858.203</ele>
        <time>2018-11-15 09:25:59</time>
      </trkpt>
      <trkpt lat="45.424" lon="5.90301">
        <ele>1858.7699</ele>
        <time>883</time>
      </trkpt>
      <trkpt lat="45.42427" lon="5.9032">
        <ele>1859.2468</ele>
        <time>2018-11-15 09:26:42</time>
      </trkpt>
      <trkpt lat="45.42451" lon="5.90346">
        <ele>1858.0037</ele>
        <time>885</time>
      </trkpt>
      <trkpt lat="45.42473" lon="5.90376">
        <ele>1857.7385</ele>
        <time>2018-11-15 09:27:27</time>
      </trkpt>
      <trkpt lat="45.42503" lon="5.90382">
        <ele>1855.9723</ele>
        <time>886</time>
      </trkpt>
      <trkpt lat="45.42532" lon="5.90397">
        <ele>1853.2382</ele>
        <time>2018-11-15 09:29:11</time>
      </trkpt>
      <trkpt lat="45.42562" lon="5.90406">
        <ele>1848.2007</ele>
        <time>885</time>
      </trkpt>
      <trkpt lat="45.42592" lon="5.90401">
        <ele>1847.5795</ele>
        <time>2018-11-15 09:30:48</time>
      </trkpt>
      <trkpt lat="45.42621" lon="5.90386">
        <ele>1844.8453</ele>
        <time>895</time>
      </trkpt>
      <trkpt lat="45.42651" lon="5.90388">
        <ele>1843.826</ele>
        <time>2018-11-15 09:31:51</time>
      </trkpt>
      <trkpt lat="45.4268" lon="5.904">
        <ele>1843.0815</ele>
        <time>882</time>
      </trkpt>
      <trkpt lat="45.42718" lon="5.90421">
        <ele>1843.1787</ele>
        <time>2018-11-15 09:34:29</time>
      </trkpt>
      <trkpt lat="45.42745" lon="5.90441">
        <ele>1843.4644</ele>
        <time>876</time>
      </trkpt>
      <trkpt lat="45.42775" lon="5.90449">
        <ele>1843.8245</ele>
        <time>2018-11-15 09:36:51</time>
      </trkpt>
      <trkpt lat="45.42804" lon="5.90461">
        <ele>1844.566</ele>
        <time>876</time>
      </trkpt>
      <trkpt lat="45.42908" lon="5.90493">
        <ele>1846.6757</ele>
        <time>2018-11-15 09:39:39</time>
      </trkpt>
      <trkpt lat="45.42932" lon="5.90466">
        <ele>1847.0472</ele>
        <time>872</time>
      </trkpt>
      <trkpt lat="45.42962" lon="5.90472">
        <ele>1846.6703</ele>
        <time>2018-11-15 09:40:35</time>
      </trkpt>
      <trkpt lat="45.43005" lon="5.90477">
        <ele>1843.9802</ele>
        <time>865</time>
      </trkpt>
      <trkpt lat="45.43037" lon="5.90484">
        <ele>1843.9443</ele>
        <time>2018-11-15 09:42:37</time>
      </trkpt>
      <trkpt lat="45.43067" lon="5.90488">
        <ele>1842.0452</ele>
        <time>873</time>
      </trkpt>
      <trkpt lat="45.43096" lon="5.9048">
        <ele>1841.4438</ele>
        <time>2018-11-15 09:43:50</time>
      </trkpt>
      <trkpt lat="45.43134" lon="5.90465">
        <ele>1843.771</ele>
        <time>876</time>
      </trkpt>
      <trkpt lat="45.43163" lon="5.90458">
        <ele>1849.2881</ele>
        <time>2018-11-15 09:44:18</time>
      </trkpt>
      <trkpt lat="45.43191" lon="5.90441">
        <ele>1853.3138</ele>
        <time>886</time>
      </trkpt>
      <trkpt lat="45.4322" lon="5.90431">
        <ele>1855.6636</ele>
        <time>2018-11-15 09:44:55</time>
      </trkpt>
      <trkpt lat="45.43245" lon="5.90408">
        <ele>1861.5989</ele>
        <time>967</time>
      </trkpt>
      <trkpt lat="45.43219" lon="5.90429">
        <ele>1863.0417</ele>
        <time>2018-11-15 09:45:28</time>
      </trkpt>
      <trkpt lat="45.4319" lon="5.90442">
        <ele>1859.3037</ele>
        <time>874</time>
      </trkpt>
      <trkpt lat="45.43163" lon="5.90459">
        <ele>1857.2727</ele>
        <time>2018-11-15 09:51:41</time>
      </trkpt>
      <trkpt lat="45.43133" lon="5.90469">
        <ele>1854.175</ele>
        <time>880</time>
      </trkpt>
      <trkpt lat="45.43078" lon="5.90495">
        <ele>1846.8291</ele>
        <time>2018-11-15 09:54:02</time>
      </trkpt>
      <trkpt lat="45.43053" lon="5.90522">
        <ele>1841.0542</ele>
        <time>881</time>
      </trkpt>
      <trkpt lat="45.43026" lon="5.90542">
        <ele>1836.492</ele>
        <time>2018-11-15 09:56:59</time>
      </trkpt>
      <trkpt lat="45.42998" lon="5.9056">
        <ele>1831.9797</ele>
        <time>870</time>
      </trkpt>
      <trkpt lat="45.4298" lon="5.90594">
        <ele>1829.4937</ele>
        <time>2018-11-15 09:59:14</time>
      </trkpt>
      <trkpt lat="45.42952" lon="5.90611">
        <ele>1826.4865</ele>
        <time>882</time>
      </trkpt>
      <trkpt lat="45.42932" lon="5.90645">
        <ele>1824.1478</ele>
        <time>2018-11-15 10:02:45</time>
      </trkpt>
      <trkpt lat="45.42891" lon="5.90707">
        <ele>1815.8247</ele>
        <time>876</time>
      </trkpt>
      <trkpt lat="45.42862" lon="5.90718">
        <ele>1811.305</ele>
        <time>2018-11-15 10:04:49</time>
      </trkpt>
      <trkpt lat="45.42833" lon="5.90704">
        <ele>1810.5122</ele>
        <time>871</time>
      </trkpt>
      <trkpt lat="45.42805" lon="5.90684">
        <ele>1810.0731</ele>
        <time>2018-11-15 10:06:21</time>
      </trkpt>
      <trkpt lat="45.42745" lon="5.90648">
        <ele>1810.933</ele>
        <time>862</time>
      </trkpt>
      <trkpt lat="45.42715" lon="5.90646">
        <ele>1811.5298</ele>
        <time>2018-11-15 10:10:56</time>
      </trkpt>
      <trkpt lat="45.42686" lon="5.90657">
        <ele>1810.3195</ele>
        <time>866</time>
      </trkpt>
      <trkpt lat="45.42655" lon="5.90667">
        <ele>1808.9078</ele>
        <time>2018-11-15 10:11:40</time>
      </trkpt>
      <trkpt lat="45.42628" lon="5.90685">
        <ele>1806.8461</ele>
        <time>861</time>
      </trkpt>
      <trkpt lat="45.42589" lon="5.90707">
        <ele>1805.816</ele>
        <time>2018-11-15 10:11:55</time>
      </trkpt>
      <trkpt lat="45.4256" lon="5.907">
        <ele>1807.2267</ele>
        <time>854</time>
      </trkpt>
      <trkpt lat="45.4253" lon="5.90709">
        <ele>1808.0702</ele>
        <time>2018-11-15 10:14:25</time>
      </trkpt>
      <trkpt lat="45.42503" lon="5.90731">
        <ele>1807.0542</ele>
        <time>840</time>
      </trkpt>
      <trkpt lat="45.42474" lon="5.90758">
        <ele>1804.6096</ele>
        <time>2018-11-15 10:19:32</time>
      </trkpt>
      <trkpt lat="45.42447" lon="5.90777">
        <ele>1803.3201</ele>
        <time>855</time>
      </trkpt>
      <trkpt lat="45.4242" lon="5.90798">
        <ele>1801.7257</ele>
        <time>2018-11-15 10:35:28</time>
      </trkpt>
      <trkpt lat="45.42394" lon="5.90822">
        <ele>1799.172</ele>
        <time>871</time>
      </trkpt>
      <trkpt lat="45.42365" lon="5.90838">
        <ele>1795.6162</ele>
        <time>2018-11-15 10:39:00</time>
      </trkpt>
      <trkpt lat="45.42336" lon="5.90847">
        <ele>1792.6736</ele>
        <time>861</time>
      </trkpt>
      <trkpt lat="45.42319" lon="5.90883">
        <ele>1790.2274</ele>
        <time>2018-11-15 10:49:42</time>
      </trkpt>
      <trkpt lat="45.4229" lon="5.90892">
        <ele>1786.9421</ele>
        <time>151</time>
      </trkpt>
      <trkpt lat="45.42285" lon="5.90934">
        <ele>1784.1372</ele>
        <time>2018-11-15 10:50:17</time>
      </trkpt>
      <trkpt lat="45.4229" lon="5.90977">
        <ele>1777.1355</ele>
        <time>163</time>
      </trkpt>
      <trkpt lat="45.42261" lon="5.90991">
        <ele>1766.0854</ele>
        <time>2018-11-15 10:50:51</time>
      </trkpt>
      <trkpt lat="45.42231" lon="5.90981">
        <ele>1765.446</ele>
        <time>153</time>
      </trkpt>
      <trkpt lat="45.42229" lon="5.91024">
        <ele>1755.3042</ele>
        <time>2018-11-15 10:51:37</time>
      </trkpt>
      <trkpt lat="45.42248" lon="5.91057">
        <ele>1749.1348</ele>
        <time>155</time>
      </trkpt>
      <trkpt lat="45.42266" lon="5.91091">
        <ele>1739.7128</ele>
        <time>2018-11-15 10:52:19</time>
      </trkpt>
      <trkpt lat="45.42252" lon="5.91129">
        <ele>1726.0303</ele>
        <time>153</time>
      </trkpt>
      <trkpt lat="45.42228" lon="5.91155">
        <ele>1712.7627</ele>
        <time>2018-11-15 10:53:23</time>
      </trkpt>
      <trkpt lat="45.42238" lon="5.91196">
        <ele>1700.1364</ele>
        <time>164</time>
      </trkpt>
      <trkpt lat="45.42214" lon="5.91222">
        <ele>1690.8904</ele>
        <time>2018-11-15 10:53:57</time>
      </trkpt>
      <trkpt lat="45.42188" lon="5.91244">
        <ele>1683.9354</ele>
        <time>158</time>
      </trkpt>
      <trkpt lat="45.42159" lon="5.91259">
        <ele>1679.4148</ele>
        <time>2018-11-15 10:54:33</time>
      </trkpt>
      <trkpt lat="45.42128" lon="5.91271">
        <ele>1674.7058</ele>
        <time>147</time>
      </trkpt>
      <trkpt lat="45.42093" lon="5.9129">
        <ele>1671.379</ele>
        <time>2018-11-15 10:55:07</time>
      </trkpt>
      <trkpt lat="45.42076" lon="5.91326">
        <ele>1667.9757</ele>
        <time>146</time>
      </trkpt>
      <trkpt lat="45.42069" lon="5.91367">
        <ele>1664.9113</ele>
        <time>2018-11-15 10:55:48</time>
      </trkpt>
      <trkpt lat="45.4205" lon="5.91401">
        <ele>1661.0533</ele>
        <time>162</time>
      </trkpt>
      <trkpt lat="45.4204" lon="5.91443">
        <ele>1658.2012</ele>
        <time>2018-11-15 10:56:48</time>
      </trkpt>
      <trkpt lat="45.42049" lon="5.91484">
        <ele>1658.7167</ele>
        <time>150</time>
      </trkpt>
      <trkpt lat="45.42037" lon="5.91524">
        <ele>1657.145</ele>
        <time>2018-11-15 10:58:20</time>
      </trkpt>
      <trkpt lat="45.42031" lon="5.91567">
        <ele>1657.1888</ele>
        <time>145</time>
      </trkpt>
      <trkpt lat="45.42033" lon="5.9161">
        <ele>1657.8315</ele>
        <time>2018-11-15 10:59:19</time>
      </trkpt>
      <trkpt lat="45.42024" lon="5.91651">
        <ele>1658.5717</ele>
        <time>161</time>
      </trkpt>
      <trkpt lat="45.42019" lon="5.91695">
        <ele>1663.089</ele>
        <time>2018-11-15 11:00:00</time>
      </trkpt>
      <trkpt lat="45.42009" lon="5.91746">
        <ele>1669.6721</ele>
        <time>150</time>
      </trkpt>
      <trkpt lat="45.41984" lon="5.9177">
        <ele>1672.9916</ele>
        <time>2018-11-15 11:00:49</time>
      </trkpt>
      <trkpt lat="45.41986" lon="5.91813">
        <ele>1680.9371</ele>
        <time>142</time>
      </trkpt>
      <trkpt lat="45.41977" lon="5.91854">
        <ele>1685.9952</ele>
        <time>2018-11-15 11:02:03</time>
      </trkpt>
      <trkpt lat="45.41983" lon="5.91896">
        <ele>1691.4929</ele>
        <time>155</time>
      </trkpt>
      <trkpt lat="45.41998" lon="5.91934">
        <ele>1697.3958</ele>
        <time>2018-11-15 11:02:48</time>
      </trkpt>
      <trkpt lat="45.41979" lon="5.91967">
        <ele>1704.2826</ele>
        <time>148</time>
      </trkpt>
      <trkpt lat="45.41956" lon="5.91997">
        <ele>1708.7073</ele>
        <time>2018-11-15 11:03:26</time>
      </trkpt>
      <trkpt lat="45.41943" lon="5.92037">
        <ele>1714.3671</ele>
        <time>143</time>
      </trkpt>
      <trkpt lat="45.41923" lon="5.92069">
        <ele>1716.8275</ele>
        <time>2018-11-15 11:03:59</time>
      </trkpt>
      <trkpt lat="45.41907" lon="5.92107">
        <ele>1723.3547</ele>
        <time>143</time>
      </trkpt>
      <trkpt lat="45.41895" lon="5.92146">
        <ele>1726.9713</ele>
        <time>2018-11-15 11:04:45</time>
      </trkpt>
      <trkpt lat="45.4188" lon="5.92186">
        <ele>1733.9376</ele>
        <time>157</time>
      </trkpt>
      <trkpt lat="45.41863" lon="5.92223">
        <ele>1743.2699</ele>
        <time>2018-11-15 11:05:18</time>
      </trkpt>
      <trkpt lat="45.41845" lon="5.92256">
        <ele>1752.1135</ele>
        <time>153</time>
      </trkpt>
      <trkpt lat="45.41824" lon="5.92288">
        <ele>1759.5714</ele>
        <time>2018-11-15 11:05:59</time>
      </trkpt>
      <trkpt lat="45.41807" lon="5.92323">
        <ele>1767.2961</ele>
        <time>154</time>
      </trkpt>
      <trkpt lat="45.41794" lon="5.92362">
        <ele>1777.9755</ele>
        <time>2018-11-15 11:06:31</time>
      </trkpt>
      <trkpt lat="45.41797" lon="5.92405">
        <ele>1783.7261</ele>
        <time>156</time>
      </trkpt>
      <trkpt lat="45.41802" lon="5.92447">
        <ele>1790.3762</ele>
        <time>2018-11-15 11:07:02</time>
      </trkpt>
      <trkpt lat="45.41793" lon="5.92488">
        <ele>1794.6962</ele>
        <time>148</time>
      </trkpt>
      <trkpt lat="45.41791" lon="5.92531">
        <ele>1800.8744</ele>
        <time>2018-11-15 11:07:49</time>
      </trkpt>
      <trkpt lat="45.41783" lon="5.92573">
        <ele>1808.5852</ele>
        <time>140</time>
      </trkpt>
      <trkpt lat="45.41781" lon="5.92616">
        <ele>1815.6512</ele>
        <time>2018-11-15 11:08:21</time>
      </trkpt>
      <trkpt lat="45.41773" lon="5.92658">
        <ele>1820.0311</ele>
        <time>143</time>
      </trkpt>
      <trkpt lat="45.4177" lon="5.92701">
        <ele>1824.6007</ele>
        <time>2018-11-15 11:08:55</time>
      </trkpt>
      <trkpt lat="45.41745" lon="5.92726">
        <ele>1819.6536</ele>
        <time>149</time>
      </trkpt>
      <trkpt lat="45.41709" lon="5.92757">
        <ele>1809.9216</ele>
        <time>2018-11-15 11:09:26</time>
      </trkpt>
      <trkpt lat="45.41681" lon="5.92772">
        <ele>1803.5215</ele>
        <time>150</time>
      </trkpt>
      <trkpt lat="45.4165" lon="5.9277">
        <ele>1797.9475</ele>
        <time>2018-11-15 11:11:15</time>
      </trkpt>
      <trkpt lat="45.41621" lon="5.92761">
        <ele>1792.0347</ele>
        <time>139</time>
      </trkpt>
      <trkpt lat="45.41591" lon="5.92744">
        <ele>1786.3888</ele>
        <time>2018-11-15 11:11:42</time>
      </trkpt>
      <trkpt lat="45.41564" lon="5.92724">
        <ele>1780.9434</ele>
        <time>146</time>
      </trkpt>
      <trkpt lat="45.41543" lon="5.9269">
        <ele>1775.06</ele>
        <time>2018-11-15 11:12:13</time>
      </trkpt>
      <trkpt lat="45.41521" lon="5.92662">
        <ele>1768.0034</ele>
        <time>138</time>
      </trkpt>
      <trkpt lat="45.41484" lon="5.92609">
        <ele>1755.2124</ele>
        <time>2018-11-15 11:13:05</time>
      </trkpt>
      <trkpt lat="45.41448" lon="5.92562">
        <ele>1742.5063</ele>
        <time>138</time>
      </trkpt>
      <trkpt lat="45.41422" lon="5.92541">
        <ele>1735.2897</ele>
        <time>2018-11-15 11:13:33</time>
      </trkpt>
      <trkpt lat="45.41406" lon="5.92504">
        <ele>1730.2258</ele>
        <time>140</time>
      </trkpt>
      <trkpt lat="45.41382" lon="5.92477">
        <ele>1724.3115</ele>
        <time>2018-11-15 11:14:07</time>
      </trkpt>
      <trkpt lat="45.41369" lon="5.92438">
        <ele>1719.2677</ele>
        <time>136</time>
      </trkpt>
      <trkpt lat="45.41348" lon="5.92408">
        <ele>1712.1757</ele>
        <time>2018-11-15 11:15:30</time>
      </trkpt>
      <trkpt lat="45.41323" lon="5.92381">
        <ele>1703.5259</ele>
        <time>144</time>
      </trkpt>
      <trkpt lat="45.413" lon="5.92351">
        <ele>1699.3961</ele>
        <time>2018-11-15 11:17:19</time>
      </trkpt>
      <trkpt lat="45.41286" lon="5.92312">
        <ele>1696.4158</ele>
        <time>141</time>
      </trkpt>
      <trkpt lat="45.41268" lon="5.92278">
        <ele>1694.5814</ele>
        <time>2018-11-15 11:18:38</time>
      </trkpt>
      <trkpt lat="45.41254" lon="5.9224">
        <ele>1691.0889</ele>
        <time>141</time>
      </trkpt>
      <trkpt lat="45.41243" lon="5.922">
        <ele>1688.1531</ele>
        <time>2018-11-15 11:19:49</time>
      </trkpt>
      <trkpt lat="45.41225" lon="5.92164">
        <ele>1679.2361</ele>
        <time>136</time>
      </trkpt>
      <trkpt lat="45.41203" lon="5.92131">
        <ele>1668.7483</ele>
        <time>2018-11-15 11:20:28</time>
      </trkpt>
      <trkpt lat="45.41184" lon="5.92098">
        <ele>1659.0745</ele>
        <time>136</time>
      </trkpt>
      <trkpt lat="45.41166" lon="5.92061">
        <ele>1651.0365</ele>
        <time>2018-11-15 11:21:39</time>
      </trkpt>
      <trkpt lat="45.41152" lon="5.92023">
        <ele>1649.0822</ele>
        <time>128</time>
      </trkpt>
      <trkpt lat="45.41131" lon="5.91992">
        <ele>1647.3082</ele>
        <time>2018-11-15 11:29:50</time>
      </trkpt>
      <trkpt lat="45.41112" lon="5.91958">
        <ele>1644.3956</ele>
        <time>133</time>
      </trkpt>
      <trkpt lat="45.41087" lon="5.9193">
        <ele>1637.1726</ele>
        <time>2018-11-15 11:30:32</time>
      </trkpt>
      <trkpt lat="45.41067" lon="5.91897">
        <ele>1626.2299</ele>
        <time>117</time>
      </trkpt>
      <trkpt lat="45.41038" lon="5.91856">
        <ele>1612.8533</ele>
        <time>2018-11-15 11:31:03</time>
      </trkpt>
      <trkpt lat="45.41014" lon="5.91826">
        <ele>1603.4176</ele>
        <time>125</time>
      </trkpt>
      <trkpt lat="45.40995" lon="5.91792">
        <ele>1592.5814</ele>
        <time>2018-11-15 11:31:28</time>
      </trkpt>
      <trkpt lat="45.40981" lon="5.91754">
        <ele>1586.1044</ele>
        <time>132</time>
      </trkpt>
      <trkpt lat="45.40962" lon="5.9172">
        <ele>1582.2885</ele>
        <time>2018-11-15 11:32:30</time>
      </trkpt>
      <trkpt lat="45.40942" lon="5.91688">
        <ele>1576.2277</ele>
        <time>128</time>
      </trkpt>
      <trkpt lat="45.40928" lon="5.91648">
        <ele>1574.7874</ele>
        <time>2018-11-15 11:33:35</time>
      </trkpt>
      <trkpt lat="45.40905" lon="5.91619">
        <ele>1569.6359</ele>
        <time>137</time>
      </trkpt>
      <trkpt lat="45.40889" lon="5.91582">
        <ele>1566.1232</ele>
        <time>2018-11-15 11:34:07</time>
      </trkpt>
      <trkpt lat="45.40867" lon="5.91553">
        <ele>1559.6985</ele>
        <time>126</time>
      </trkpt>
      <trkpt lat="45.40849" lon="5.91518">
        <ele>1545.5507</ele>
        <time>2018-11-15 11:34:48</time>
      </trkpt>
      <trkpt lat="45.40839" lon="5.91477">
        <ele>1523.3691</ele>
        <time>122</time>
      </trkpt>
      <trkpt lat="45.40817" lon="5.91448">
        <ele>1515.3143</ele>
        <time>2018-11-15 11:35:24</time>
      </trkpt>
      <trkpt lat="45.40803" lon="5.9141">
        <ele>1519.0363</ele>
        <time>126</time>
      </trkpt>
      <trkpt lat="45.40786" lon="5.91375">
        <ele>1521.317</ele>
        <time>2018-11-15 11:36:28</time>
      </trkpt>
      <trkpt lat="45.40756" lon="5.91322">
        <ele>1519.036</ele>
        <time>128</time>
      </trkpt>
      <trkpt lat="45.40737" lon="5.91283">
        <ele>1513.205</ele>
        <time>2018-11-15 11:37:06</time>
      </trkpt>
      <trkpt lat="45.40713" lon="5.91254">
        <ele>1507.6366</ele>
        <time>122</time>
      </trkpt>
      <trkpt lat="45.40698" lon="5.91217">
        <ele>1500.7206</ele>
        <time>2018-11-15 11:38:36</time>
      </trkpt>
      <trkpt lat="45.40674" lon="5.91191">
        <ele>1494.3251</ele>
        <time>113</time>
      </trkpt>
      <trkpt lat="45.4066" lon="5.91153">
        <ele>1490.401</ele>
        <time>2018-11-15 11:39:18</time>
      </trkpt>
      <trkpt lat="45.40647" lon="5.91112">
        <ele>1490.4646</ele>
        <time>130</time>
      </trkpt>
      <trkpt lat="45.40619" lon="5.91094">
        <ele>1481.6975</ele>
        <time>2018-11-15 11:39:50</time>
      </trkpt>
      <trkpt lat="45.40601" lon="5.91059">
        <ele>1485.3451</ele>
        <time>115</time>
      </trkpt>
      <trkpt lat="45.40577" lon="5.91032">
        <ele>1488.6685</ele>
        <time>2018-11-15 11:40:15</time>
      </trkpt>
      <trkpt lat="45.40544" lon="5.91">
        <ele>1463.2509</ele>
        <time>122</time>
      </trkpt>
      <trkpt lat="45.40522" lon="5.9097">
        <ele>1460.2083</ele>
        <time>2018-11-15 11:41:17</time>
      </trkpt>
      <trkpt lat="45.40502" lon="5.90938">
        <ele>1457.6152</ele>
        <time>126</time>
      </trkpt>
      <trkpt lat="45.40487" lon="5.90901">
        <ele>1453.5237</ele>
        <time>2018-11-15 11:41:43</time>
      </trkpt>
      <trkpt lat="45.4047" lon="5.90866">
        <ele>1451.2369</ele>
        <time>127</time>
      </trkpt>
      <trkpt lat="45.40455" lon="5.90827">
        <ele>1452.0577</ele>
        <time>2018-11-15 11:42:12</time>
      </trkpt>
      <trkpt lat="45.40439" lon="5.90789">
        <ele>1451.129</ele>
        <time>127</time>
      </trkpt>
      <trkpt lat="45.40428" lon="5.90749">
        <ele>1445.4894</ele>
        <time>2018-11-15 11:42:42</time>
      </trkpt>
      <trkpt lat="45.4041" lon="5.90695">
        <ele>1435.9833</ele>
        <time>126</time>
      </trkpt>
      <trkpt lat="45.40402" lon="5.90653">
        <ele>1427.1908</ele>
        <time>2018-11-15 11:43:07</time>
      </trkpt>
      <trkpt lat="45.40389" lon="5.90614">
        <ele>1414.1816</ele>
        <time>130</time>
      </trkpt>
      <trkpt lat="45.40371" lon="5.90579">
        <ele>1402.4069</ele>
        <time>2018-11-15 11:43:50</time>
      </trkpt>
      <trkpt lat="45.4035" lon="5.90549">
        <ele>1385.1841</ele>
        <time>117</time>
      </trkpt>
      <trkpt lat="45.40327" lon="5.90522">
        <ele>1372.0404</ele>
        <time>2018-11-15 11:44:20</time>
      </trkpt>
      <trkpt lat="45.40356" lon="5.90515">
        <ele>1356.4899</ele>
        <time>128</time>
      </trkpt>
      <trkpt lat="45.40365" lon="5.90473">
        <ele>1331.1643</ele>
        <time>2018-11-15 11:44:46</time>
      </trkpt>
      <trkpt lat="45.40357" lon="5.9043">
        <ele>1317.3118</ele>
        <time>122</time>
      </trkpt>
      <trkpt lat="45.40343" lon="5.90392">
        <ele>1295.397</ele>
        <time>2018-11-15 11:45:12</time>
      </trkpt>
      <trkpt lat="45.40354" lon="5.90351">
        <ele>1288.1909</ele>
        <time>114</time>
      </trkpt>
      <trkpt lat="45.40353" lon="5.90308">
        <ele>1282.1542</ele>
        <time>2018-11-15 11:45:42</time>
      </trkpt>
      <trkpt lat="45.40323" lon="5.90301">
        <ele>1266.5787</ele>
        <time>126</time>
      </trkpt>
      <trkpt lat="45.40322" lon="5.90258">
        <ele>1259.3168</ele>
        <time>2018-11-15 11:46:07</time>
      </trkpt>
      <trkpt lat="45.40317" lon="5.90214">
        <ele>1244.8308</ele>
        <time>117</time>
      </trkpt>
      <trkpt lat="45.40318" lon="5.90171">
        <ele>1232.6368</ele>
        <time>2018-11-15 11:46:33</time>
      </trkpt>
      <trkpt lat="45.40332" lon="5.90132">
        <ele>1217.0305</ele>
        <time>111</time>
      </trkpt>
      <trkpt lat="45.40335" lon="5.90088">
        <ele>1206.6998</ele>
        <time>2018-11-15 11:47:01</time>
      </trkpt>
      <trkpt lat="45.4034" lon="5.90045">
        <ele>1196.2117</ele>
        <time>118</time>
      </trkpt>
      <trkpt lat="45.40341" lon="5.90002">
        <ele>1176.1499</ele>
        <time>2018-11-15 11:47:41</time>
      </trkpt>
      <trkpt lat="45.40353" lon="5.89963">
        <ele>1167.6749</ele>
        <time>122</time>
      </trkpt>
      <trkpt lat="45.40382" lon="5.8985">
        <ele>1156.196</ele>
        <time>2018-11-15 11:48:38</time>
      </trkpt>
      <trkpt lat="45.40389" lon="5.89807">
        <ele>1155.7278</ele>
        <time>110</time>
      </trkpt>
      <trkpt lat="45.40398" lon="5.89766">
        <ele>1156.0262</ele>
        <time>2018-11-15 11:49:33</time>
      </trkpt>
      <trkpt lat="45.40414" lon="5.89729">
        <ele>1151.6141</ele>
        <time>115</time>
      </trkpt>
      <trkpt lat="45.40423" lon="5.89686">
        <ele>1147.8307</ele>
        <time>2018-11-15 11:50:10</time>
      </trkpt>
      <trkpt lat="45.40444" lon="5.89606">
        <ele>1140.37</ele>
        <time>120</time>
      </trkpt>
      <trkpt lat="45.40471" lon="5.89585">
        <ele>1139.027</ele>
        <time>2018-11-15 11:51:01</time>
      </trkpt>
      <trkpt lat="45.40518" lon="5.89542">
        <ele>1138.6259</ele>
        <time>121</time>
      </trkpt>
      <trkpt lat="45.40553" lon="5.89515">
        <ele>1131.6512</ele>
        <time>2018-11-15 11:51:57</time>
      </trkpt>
      <trkpt lat="45.40583" lon="5.89508">
        <ele>1129.9729</ele>
        <time>108</time>
      </trkpt>
      <trkpt lat="45.40613" lon="5.89518">
        <ele>1129.5128</ele>
        <time>2018-11-15 11:53:01</time>
      </trkpt>
      <trkpt lat="45.40734" lon="5.89548">
        <ele>1124.6381</ele>
        <time>109</time>
      </trkpt>
      <trkpt lat="45.40764" lon="5.89535">
        <ele>1120.029</ele>
        <time>2018-11-15 11:53:29</time>
      </trkpt>
      <trkpt lat="45.40805" lon="5.89514">
        <ele>1114.4862</ele>
        <time>113</time>
      </trkpt>
      <trkpt lat="45.40831" lon="5.8949">
        <ele>1115.269</ele>
        <time>2018-11-15 11:55:04</time>
      </trkpt>
      <trkpt lat="45.40846" lon="5.89453">
        <ele>1115.8881</ele>
        <time>110</time>
      </trkpt>
      <trkpt lat="45.40848" lon="5.8941">
        <ele>1110.6788</ele>
        <time>2018-11-15 11:55:45</time>
      </trkpt>
      <trkpt lat="45.40853" lon="5.89367">
        <ele>1105.6163</ele>
        <time>103</time>
      </trkpt>
      <trkpt lat="45.40862" lon="5.89324">
        <ele>1104.2789</ele>
        <time>2018-11-15 11:56:38</time>
      </trkpt>
      <trkpt lat="45.40878" lon="5.89285">
        <ele>1102.7694</ele>
        <time>123</time>
      </trkpt>
      <trkpt lat="45.40902" lon="5.89257">
        <ele>1103.8334</ele>
        <time>2018-11-15 11:58:00</time>
      </trkpt>
      <trkpt lat="45.40929" lon="5.89237">
        <ele>1109.2534</ele>
        <time>218</time>
      </trkpt>
      <trkpt lat="45.40967" lon="5.89202">
        <ele>1119.9259</ele>
        <time>2018-11-15 11:59:09</time>
      </trkpt>
      <trkpt lat="45.4099" lon="5.89173">
        <ele>1120.6588</ele>
        <time>106</time>
      </trkpt>
      <trkpt lat="45.41014" lon="5.89147">
        <ele>1122.9319</ele>
        <time>2018-11-15 12:00:32</time>
      </trkpt>
      <trkpt lat="45.41031" lon="5.89111">
        <ele>1122.3917</ele>
        <time>101</time>
      </trkpt>
      <trkpt lat="45.41032" lon="5.89068">
        <ele>1119.1326</ele>
        <time>2018-11-15 12:01:22</time>
      </trkpt>
      <trkpt lat="45.41037" lon="5.89024">
        <ele>1115.0072</ele>
        <time>114</time>
      </trkpt>
      <trkpt lat="45.41048" lon="5.88984">
        <ele>1114.5497</ele>
        <time>2018-11-15 12:01:52</time>
      </trkpt>
      <trkpt lat="45.41053" lon="5.8894">
        <ele>1122.374</ele>
        <time>102</time>
      </trkpt>
      <trkpt lat="45.41069" lon="5.88902">
        <ele>1130.5598</ele>
        <time>2018-11-15 12:02:21</time>
      </trkpt>
      <trkpt lat="45.41092" lon="5.88875">
        <ele>1130.5316</ele>
        <time>109</time>
      </trkpt>
      <trkpt lat="45.41115" lon="5.88846">
        <ele>1128.7332</ele>
        <time>2018-11-15 12:02:56</time>
      </trkpt>
      <trkpt lat="45.4114" lon="5.88821">
        <ele>1117.6384</ele>
        <time>093</time>
      </trkpt>
      <trkpt lat="45.41163" lon="5.88791">
        <ele>1106.0122</ele>
        <time>2018-11-15 12:03:33</time>
      </trkpt>
      <trkpt lat="45.41181" lon="5.88757">
        <ele>1096.7399</ele>
        <time>105</time>
      </trkpt>
      <trkpt lat="45.41197" lon="5.8872">
        <ele>1080.783</ele>
        <time>2018-11-15 12:04:03</time>
      </trkpt>
      <trkpt lat="45.41224" lon="5.88697">
        <ele>1069.3704</ele>
        <time>105</time>
      </trkpt>
      <trkpt lat="45.41246" lon="5.88667">
        <ele>1060.1715</ele>
        <time>2018-11-15 12:04:30</time>
      </trkpt>
      <trkpt lat="45.41251" lon="5.88659">
        <ele>1053.5516</ele>
        <time>107</time>
      </trkpt>
    </trkseg>
  </trk>
  <trk>
    <name><![CDATA[20181117183751-Yfb97]]></name>
    <trkseg>
      <trkpt lat="45.71779" lon="6.07883">
        <ele>764.8</ele>
      </trkpt>
      <trkpt lat="45.71802" lon="6.07801">
        <ele>769.2</ele>
      </trkpt>
      <trkpt lat="45.71838" lon="6.0772">
        <ele>775.1</ele>
      </trkpt>
      <trkpt lat="45.71844" lon="6.07626">
        <ele>782.3</ele>
      </trkpt>
      <trkpt lat="45.71868" lon="6.07488">
        <ele>795.3</ele>
      </trkpt>
      <trkpt lat="45.71911" lon="6.07422">
        <ele>796.9</ele>
      </trkpt>
      <trkpt lat="45.71928" lon="6.07379">
        <ele>802.1</ele>
      </trkpt>
      <trkpt lat="45.71862" lon="6.07351">
        <ele>804</ele>
      </trkpt>
      <trkpt lat="45.71845" lon="6.07312">
        <ele>808.8</ele>
      </trkpt>
      <trkpt lat="45.71806" lon="6.07295">
        <ele>808.5</ele>
      </trkpt>
      <trkpt lat="45.71755" lon="6.07218">
        <ele>812.9</ele>
      </trkpt>
      <trkpt lat="45.71793" lon="6.07128">
        <ele>818.5</ele>
      </trkpt>
      <trkpt lat="45.71862" lon="6.0696">
        <ele>834.8</ele>
      </trkpt>
      <trkpt lat="45.71883" lon="6.06922">
        <ele>836.9</ele>
      </trkpt>
      <trkpt lat="45.71911" lon="6.06836">
        <ele>848.7</ele>
      </trkpt>
      <trkpt lat="45.71892" lon="6.06754">
        <ele>857.7</ele>
      </trkpt>
      <trkpt lat="45.71893" lon="6.06617">
        <ele>882.6</ele>
      </trkpt>
      <trkpt lat="45.71937" lon="6.06452">
        <ele>915.2</ele>
      </trkpt>
      <trkpt lat="45.71971" lon="6.06396">
        <ele>929.9</ele>
      </trkpt>
      <trkpt lat="45.72036" lon="6.06321">
        <ele>962.4</ele>
      </trkpt>
      <trkpt lat="45.72021" lon="6.06214">
        <ele>986</ele>
      </trkpt>
      <trkpt lat="45.71926" lon="6.06117">
        <ele>990.3</ele>
      </trkpt>
      <trkpt lat="45.71889" lon="6.06055">
        <ele>994.9</ele>
      </trkpt>
      <trkpt lat="45.71854" lon="6.05982">
        <ele>1008</ele>
      </trkpt>
      <trkpt lat="45.71835" lon="6.05909">
        <ele>1017.9</ele>
      </trkpt>
      <trkpt lat="45.71763" lon="6.05737">
        <ele>1036</ele>
      </trkpt>
      <trkpt lat="45.71689" lon="6.05538">
        <ele>1062.3</ele>
      </trkpt>
      <trkpt lat="45.71656" lon="6.05422">
        <ele>1076.5</ele>
      </trkpt>
      <trkpt lat="45.71643" lon="6.05336">
        <ele>1085.4</ele>
      </trkpt>
      <trkpt lat="45.71615" lon="6.05229">
        <ele>1105.2</ele>
      </trkpt>
      <trkpt lat="45.71609" lon="6.05171">
        <ele>1109.7</ele>
      </trkpt>
      <trkpt lat="45.71619" lon="6.05076">
        <ele>1126.8</ele>
      </trkpt>
      <trkpt lat="45.71621" lon="6.04787">
        <ele>1171.4</ele>
      </trkpt>
      <trkpt lat="45.71621" lon="6.04596">
        <ele>1207.6</ele>
      </trkpt>
      <trkpt lat="45.71625" lon="6.04503">
        <ele>1223.1</ele>
      </trkpt>
      <trkpt lat="45.71624" lon="6.04394">
        <ele>1245.1</ele>
      </trkpt>
      <trkpt lat="45.71622" lon="6.04297">
        <ele>1258.4</ele>
      </trkpt>
      <trkpt lat="45.71597" lon="6.04117">
        <ele>1286</ele>
      </trkpt>
      <trkpt lat="45.71603" lon="6.04044">
        <ele>1295.8</ele>
      </trkpt>
      <trkpt lat="45.7161" lon="6.03961">
        <ele>1302.3</ele>
      </trkpt>
      <trkpt lat="45.71635" lon="6.03823">
        <ele>1309.5</ele>
      </trkpt>
      <trkpt lat="45.71621" lon="6.03662">
        <ele>1311.1</ele>
      </trkpt>
      <trkpt lat="45.71618" lon="6.03607">
        <ele>1311.3</ele>
      </trkpt>
      <trkpt lat="45.71607" lon="6.03564">
        <ele>1312.7</ele>
      </trkpt>
      <trkpt lat="45.71624" lon="6.03534">
        <ele>1312.8</ele>
      </trkpt>
      <trkpt lat="45.71627" lon="6.03448">
        <ele>1314.7</ele>
      </trkpt>
      <trkpt lat="45.7164" lon="6.0336">
        <ele>1318.8</ele>
      </trkpt>
      <trkpt lat="45.71625" lon="6.0325">
        <ele>1332.8</ele>
      </trkpt>
      <trkpt lat="45.71619" lon="6.03225">
        <ele>1344.5</ele>
      </trkpt>
      <trkpt lat="45.7161" lon="6.03139">
        <ele>1358.5</ele>
      </trkpt>
      <trkpt lat="45.71621" lon="6.03029">
        <ele>1323.2</ele>
      </trkpt>
      <trkpt lat="45.71598" lon="6.03034">
        <ele>1320</ele>
      </trkpt>
      <trkpt lat="45.71577" lon="6.03053">
        <ele>1312.8</ele>
      </trkpt>
      <trkpt lat="45.71529" lon="6.03074">
        <ele>1305.1</ele>
      </trkpt>
      <trkpt lat="45.71531" lon="6.03169">
        <ele>1335.1</ele>
      </trkpt>
      <trkpt lat="45.71514" lon="6.03205">
        <ele>1336.1</ele>
      </trkpt>
      <trkpt lat="45.71465" lon="6.03233">
        <ele>1341</ele>
      </trkpt>
      <trkpt lat="45.7139" lon="6.03242">
        <ele>1359.1</ele>
      </trkpt>
      <trkpt lat="45.71357" lon="6.03261">
        <ele>1387.4</ele>
      </trkpt>
      <trkpt lat="45.71343" lon="6.03291">
        <ele>1393.1</ele>
      </trkpt>
      <trkpt lat="45.71319" lon="6.03366">
        <ele>1415.7</ele>
      </trkpt>
      <trkpt lat="45.71304" lon="6.03358">
        <ele>1415.4</ele>
      </trkpt>
      <trkpt lat="45.71261" lon="6.03366">
        <ele>1415.1</ele>
      </trkpt>
      <trkpt lat="45.71207" lon="6.03364">
        <ele>1413.2</ele>
      </trkpt>
      <trkpt lat="45.71086" lon="6.03315">
        <ele>1417</ele>
      </trkpt>
      <trkpt lat="45.70987" lon="6.03274">
        <ele>1420.3</ele>
      </trkpt>
      <trkpt lat="45.70751" lon="6.03177">
        <ele>1411.9</ele>
      </trkpt>
      <trkpt lat="45.70687" lon="6.03124">
        <ele>1400.9</ele>
      </trkpt>
      <trkpt lat="45.70477" lon="6.02999">
        <ele>1347.7</ele>
      </trkpt>
      <trkpt lat="45.7048" lon="6.03098">
        <ele>1352.1</ele>
      </trkpt>
      <trkpt lat="45.70486" lon="6.0313">
        <ele>1353.2</ele>
      </trkpt>
      <trkpt lat="45.70393" lon="6.03257">
        <ele>1352</ele>
      </trkpt>
      <trkpt lat="45.70339" lon="6.03328">
        <ele>1344.9</ele>
      </trkpt>
      <trkpt lat="45.70293" lon="6.03448">
        <ele>1345.5</ele>
      </trkpt>
      <trkpt lat="45.70246" lon="6.03478">
        <ele>1340.6</ele>
      </trkpt>
      <trkpt lat="45.7017" lon="6.03542">
        <ele>1344.4</ele>
      </trkpt>
      <trkpt lat="45.70047" lon="6.03647">
        <ele>1345.9</ele>
      </trkpt>
      <trkpt lat="45.69975" lon="6.03694">
        <ele>1343.1</ele>
      </trkpt>
      <trkpt lat="45.69923" lon="6.03759">
        <ele>1345.3</ele>
      </trkpt>
      <trkpt lat="45.69876" lon="6.03815">
        <ele>1345</ele>
      </trkpt>
      <trkpt lat="45.69863" lon="6.03933">
        <ele>1350.2</ele>
      </trkpt>
      <trkpt lat="45.69863" lon="6.04059">
        <ele>1335.7</ele>
      </trkpt>
      <trkpt lat="45.69863" lon="6.04201">
        <ele>1312</ele>
      </trkpt>
      <trkpt lat="45.69884" lon="6.04377">
        <ele>1305.4</ele>
      </trkpt>
      <trkpt lat="45.6987" lon="6.04488">
        <ele>1302.6</ele>
      </trkpt>
      <trkpt lat="45.69815" lon="6.04667">
        <ele>1280.5</ele>
      </trkpt>
      <trkpt lat="45.69788" lon="6.04772">
        <ele>1251.1</ele>
      </trkpt>
      <trkpt lat="45.69764" lon="6.04857">
        <ele>1234.6</ele>
      </trkpt>
      <trkpt lat="45.69738" lon="6.05081">
        <ele>1187.6</ele>
      </trkpt>
      <trkpt lat="45.6972" lon="6.05267">
        <ele>1156.1</ele>
      </trkpt>
      <trkpt lat="45.6972" lon="6.0543">
        <ele>1139.5</ele>
      </trkpt>
      <trkpt lat="45.69741" lon="6.05516">
        <ele>1130.3</ele>
      </trkpt>
      <trkpt lat="45.69803" lon="6.05574">
        <ele>1134.3</ele>
      </trkpt>
      <trkpt lat="45.69923" lon="6.05684">
        <ele>1153.6</ele>
      </trkpt>
      <trkpt lat="45.69966" lon="6.05765">
        <ele>1146.2</ele>
      </trkpt>
      <trkpt lat="45.69998" lon="6.05825">
        <ele>1146.4</ele>
      </trkpt>
      <trkpt lat="45.70038" lon="6.0584">
        <ele>1148.9</ele>
      </trkpt>
      <trkpt lat="45.70119" lon="6.05941">
        <ele>1138.7</ele>
      </trkpt>
      <trkpt lat="45.70166" lon="6.05969">
        <ele>1135.6</ele>
      </trkpt>
      <trkpt lat="45.70252" lon="6.06008">
        <ele>1124.8</ele>
      </trkpt>
      <trkpt lat="45.70386" lon="6.06055">
        <ele>1111.6</ele>
      </trkpt>
      <trkpt lat="45.70447" lon="6.06085">
        <ele>1096.8</ele>
      </trkpt>
      <trkpt lat="45.70543" lon="6.06254">
        <ele>1060.1</ele>
      </trkpt>
      <trkpt lat="45.70699" lon="6.06242">
        <ele>1054.5</ele>
      </trkpt>
      <trkpt lat="45.70726" lon="6.06231">
        <ele>1052.8</ele>
      </trkpt>
      <trkpt lat="45.70808" lon="6.06284">
        <ele>1023.8</ele>
      </trkpt>
      <trkpt lat="45.70826" lon="6.06426">
        <ele>1000.8</ele>
      </trkpt>
      <trkpt lat="45.70879" lon="6.0643">
        <ele>989</ele>
      </trkpt>
      <trkpt lat="45.70909" lon="6.06428">
        <ele>986.3</ele>
      </trkpt>
      <trkpt lat="45.70909" lon="6.06471">
        <ele>984.4</ele>
      </trkpt>
      <trkpt lat="45.70904" lon="6.06557">
        <ele>970.6</ele>
      </trkpt>
      <trkpt lat="45.70918" lon="6.06619">
        <ele>952.3</ele>
      </trkpt>
      <trkpt lat="45.70903" lon="6.06679">
        <ele>941.2</ele>
      </trkpt>
      <trkpt lat="45.70891" lon="6.06741">
        <ele>932.4</ele>
      </trkpt>
      <trkpt lat="45.70867" lon="6.06836">
        <ele>899.8</ele>
      </trkpt>
      <trkpt lat="45.70846" lon="6.06924">
        <ele>883.5</ele>
      </trkpt>
      <trkpt lat="45.7085" lon="6.07005">
        <ele>860.4</ele>
      </trkpt>
      <trkpt lat="45.7085" lon="6.07093">
        <ele>840.2</ele>
      </trkpt>
      <trkpt lat="45.70862" lon="6.07149">
        <ele>834.2</ele>
      </trkpt>
      <trkpt lat="45.70885" lon="6.07196">
        <ele>823.2</ele>
      </trkpt>
      <trkpt lat="45.70895" lon="6.07241">
        <ele>819.5</ele>
      </trkpt>
      <trkpt lat="45.70921" lon="6.07413">
        <ele>799.1</ele>
      </trkpt>
      <trkpt lat="45.70952" lon="6.07495">
        <ele>794.3</ele>
      </trkpt>
      <trkpt lat="45.71045" lon="6.07598">
        <ele>785</ele>
      </trkpt>
      <trkpt lat="45.71098" lon="6.07613">
        <ele>785.2</ele>
      </trkpt>
      <trkpt lat="45.71161" lon="6.07613">
        <ele>784.8</ele>
      </trkpt>
      <trkpt lat="45.71194" lon="6.0763">
        <ele>783.8</ele>
      </trkpt>
      <trkpt lat="45.71223" lon="6.07666">
        <ele>782.3</ele>
      </trkpt>
      <trkpt lat="45.71279" lon="6.07703">
        <ele>776.7</ele>
      </trkpt>
      <trkpt lat="45.71333" lon="6.07711">
        <ele>776.5</ele>
      </trkpt>
      <trkpt lat="45.71385" lon="6.07733">
        <ele>777.2</ele>
      </trkpt>
      <trkpt lat="45.7145" lon="6.07729">
        <ele>777.6</ele>
      </trkpt>
      <trkpt lat="45.71505" lon="6.07767">
        <ele>770.4</ele>
      </trkpt>
      <trkpt lat="45.71538" lon="6.0775">
        <ele>772.4</ele>
      </trkpt>
      <trkpt lat="45.71621" lon="6.07735">
        <ele>770.7</ele>
      </trkpt>
      <trkpt lat="45.7163" lon="6.07804">
        <ele>766</ele>
      </trkpt>
      <trkpt lat="45.7168" lon="6.07887">
        <ele>764.1</ele>
      </trkpt>
      <trkpt lat="45.71743" lon="6.07986">
        <ele>759.9</ele>
      </trkpt>
      <trkpt lat="45.7177" lon="6.07911">
        <ele>764</ele>
      </trkpt>
    </trkseg>
  </trk>
</gpx>